Time;durP1;ratioP1;P1;durP2;ratioP2;P2;SDS_P1;SDS_P2;PMS_P1;PMS_P2;Temp;Humidity;BMP_temperature;BMP_pressure;BME280_temperature;BME280_humidity;BME280_pressure;Samples;Min_cycle;Max_cycle;Signal;HPM_P1;HPM_P2
2023/03/10 00:00:44;;;;;;;22.83;16.67;;;1.10;99.90;;;;;;5048305;28;20428;-57
2023/03/10 00:03:10;;;;;;;25.60;17.90;;;1.10;99.90;;;;;;5048753;28;20426;-59
2023/03/10 00:05:37;;;;;;;26.73;18.35;;;1.10;99.90;;;;;;5048382;28;20059;-58
2023/03/10 00:08:04;;;;;;;30.00;17.80;;;1.10;99.90;;;;;;5048955;28;20035;-59
2023/03/10 00:10:29;;;;;;;26.05;17.70;;;1.00;99.90;;;;;;5048393;28;20028;-58
2023/03/10 00:12:55;;;;;;;25.48;17.17;;;1.00;99.90;;;;;;5048778;28;20116;-58
2023/03/10 00:15:20;;;;;;;27.17;18.45;;;1.00;99.90;;;;;;5048571;28;20118;-58
2023/03/10 00:17:49;;;;;;;27.60;17.80;;;1.00;99.90;;;;;;5045576;28;20029;-58
2023/03/10 00:20:15;;;;;;;27.95;17.63;;;1.00;99.90;;;;;;5048578;28;20422;-58
2023/03/10 00:22:40;;;;;;;24.90;16.90;;;0.90;99.90;;;;;;5048541;28;20020;-58
2023/03/10 00:25:08;;;;;;;28.20;18.67;;;1.00;99.90;;;;;;5047349;28;20415;-59
2023/03/10 00:27:34;;;;;;;26.13;16.73;;;1.00;99.90;;;;;;5048724;28;20021;-59
2023/03/10 00:29:59;;;;;;;26.67;17.88;;;0.90;99.90;;;;;;5048324;28;20086;-58
2023/03/10 00:32:25;;;;;;;28.02;18.50;;;0.90;99.90;;;;;;5046097;28;20483;-57
2023/03/10 00:34:51;;;;;;;27.88;17.40;;;0.90;99.90;;;;;;5047504;28;20029;-58
2023/03/10 00:37:17;;;;;;;25.88;17.75;;;0.90;99.90;;;;;;5047638;28;20025;-55
2023/03/10 00:39:43;;;;;;;28.95;18.08;;;0.90;99.90;;;;;;5048250;28;20032;-57
2023/03/10 00:42:09;;;;;;;26.83;17.60;;;0.90;99.90;;;;;;5052908;28;20475;-58
2023/03/10 00:44:35;;;;;;;28.70;19.27;;;0.90;99.90;;;;;;5049859;28;20063;-58
2023/03/10 00:47:00;;;;;;;29.95;19.35;;;0.90;99.90;;;;;;5048389;28;20029;-58
2023/03/10 00:49:26;;;;;;;28.88;19.27;;;0.80;99.90;;;;;;5049998;28;20467;-57
2023/03/10 00:51:51;;;;;;;30.38;19.58;;;0.90;99.90;;;;;;5046106;28;20435;-58
2023/03/10 00:54:17;;;;;;;31.20;20.20;;;0.80;99.90;;;;;;5052134;28;20398;-58
2023/03/10 00:56:43;;;;;;;32.80;20.55;;;0.80;99.90;;;;;;5052043;28;20395;-59
2023/03/10 00:59:10;;;;;;;27.13;18.40;;;0.80;99.90;;;;;;5043435;28;20124;-54
2023/03/10 01:01:40;;;;;;;28.98;19.25;;;0.80;99.90;;;;;;5042661;28;20034;-58
2023/03/10 01:04:10;;;;;;;32.05;17.92;;;0.80;99.90;;;;;;5051978;28;20055;-57
2023/03/10 01:06:35;;;;;;;29.88;18.88;;;0.80;99.90;;;;;;5043314;28;20037;-56
2023/03/10 01:09:02;;;;;;;28.67;17.80;;;0.80;99.90;;;;;;5048781;28;20521;-58
2023/03/10 01:11:29;;;;;;;32.10;20.25;;;0.80;99.90;;;;;;5052215;28;20032;-58
2023/03/10 01:14:01;;;;;;;31.80;19.35;;;0.80;99.90;;;;;;5048940;28;20017;-58
2023/03/10 01:16:27;;;;;;;29.73;18.95;;;0.70;99.90;;;;;;5051137;28;20104;-56
2023/03/10 01:18:53;;;;;;;31.40;20.00;;;0.70;99.90;;;;;;5051492;28;20044;-57
2023/03/10 01:21:23;;;;;;;32.28;20.55;;;0.70;99.90;;;;;;5051660;28;20033;-57
2023/03/10 01:23:48;;;;;;;33.20;20.27;;;0.70;99.90;;;;;;5051399;28;20025;-59
2023/03/10 01:26:14;;;;;;;32.38;20.73;;;0.70;99.90;;;;;;5051864;28;20391;-56
2023/03/10 01:28:40;;;;;;;32.95;20.88;;;0.70;99.90;;;;;;5041137;28;20118;-57
2023/03/10 01:31:06;;;;;;;29.85;18.83;;;0.70;99.90;;;;;;5045332;28;20040;-59
2023/03/10 01:33:42;;;;;;;31.42;18.88;;;0.70;99.90;;;;;;5051031;28;20036;-58
2023/03/10 01:36:17;;;;;;;29.55;19.27;;;0.60;99.90;;;;;;5047665;28;20036;-58
2023/03/10 01:38:44;;;;;;;28.08;18.88;;;0.60;99.90;;;;;;5048986;28;20104;-58
2023/03/10 01:41:10;;;;;;;31.35;18.40;;;0.70;99.90;;;;;;5046909;28;20025;-57
2023/03/10 01:43:38;;;;;;;30.10;18.60;;;0.60;99.90;;;;;;5049832;28;20028;-58
2023/03/10 01:46:38;;;;;;;29.48;18.42;;;0.60;99.90;;;;;;5050871;28;20028;-58
2023/03/10 01:49:38;;;;;;;29.80;18.95;;;0.60;99.90;;;;;;5044633;28;20479;-57
2023/03/10 01:52:09;;;;;;;28.95;17.02;;;0.60;99.90;;;;;;5015895;28;20033;-58
2023/03/10 01:55:07;;;;;;;30.52;18.13;;;0.60;99.90;;;;;;5051831;28;20033;-58
2023/03/10 01:57:37;;;;;;;28.95;17.30;;;0.60;99.90;;;;;;5047558;28;20033;-57
2023/03/10 02:00:11;;;;;;;28.58;18.23;;;0.60;99.90;;;;;;5055444;28;20103;-54
2023/03/10 02:03:06;;;;;;;28.20;18.50;;;0.60;99.90;;;;;;5047029;28;20064;-57
2023/03/10 02:05:34;;;;;;;27.67;17.40;;;0.60;99.90;;;;;;5050160;28;20021;-57
2023/03/10 02:07:59;;;;;;;27.63;17.75;;;0.50;99.90;;;;;;5050935;28;20060;-58
2023/03/10 02:10:26;;;;;;;27.67;17.83;;;0.50;99.90;;;;;;5048981;28;20068;-58
2023/03/10 02:12:51;;;;;;;29.13;18.25;;;0.50;99.90;;;;;;5051063;28;20052;-58
2023/03/10 02:15:17;;;;;;;27.75;17.90;;;0.50;99.90;;;;;;5051035;28;20044;-56
2023/03/10 02:17:43;;;;;;;24.23;17.02;;;0.50;99.90;;;;;;5050349;28;20017;-56
2023/03/10 02:20:14;;;;;;;27.48;17.27;;;0.50;99.90;;;;;;5050334;28;20025;-59
2023/03/10 02:22:40;;;;;;;24.83;16.02;;;0.50;99.90;;;;;;5050520;28;20049;-58
2023/03/10 02:25:32;;;;;;;26.00;16.67;;;0.50;99.90;;;;;;5050897;28;20028;-59
2023/03/10 02:27:58;;;;;;;27.33;16.80;;;0.50;99.90;;;;;;5047932;28;20029;-59
2023/03/10 02:30:29;;;;;;;27.85;17.10;;;0.50;99.90;;;;;;5043905;28;20036;-58
2023/03/10 02:32:58;;;;;;;28.75;18.52;;;0.50;99.90;;;;;;5042766;28;20021;-55
2023/03/10 02:35:24;;;;;;;24.05;16.10;;;0.50;99.90;;;;;;5048824;28;20074;-58
2023/03/10 02:37:50;;;;;;;28.75;17.63;;;0.50;99.90;;;;;;5050270;28;20401;-56
2023/03/10 02:40:36;;;;;;;24.92;17.42;;;0.40;99.90;;;;;;5049813;28;20033;-57
2023/03/10 02:43:23;;;;;;;28.70;17.27;;;0.40;99.90;;;;;;5043607;28;20025;-59
2023/03/10 02:45:51;;;;;;;29.65;17.67;;;0.50;99.90;;;;;;5036081;28;20041;-56
2023/03/10 02:48:27;;;;;;;27.58;16.88;;;0.40;99.90;;;;;;5046500;28;20037;-57
2023/03/10 02:50:52;;;;;;;30.55;18.33;;;0.40;99.90;;;;;;5041580;28;20107;-58
2023/03/10 02:53:21;;;;;;;23.08;15.55;;;0.40;99.90;;;;;;5045184;28;20105;-58
2023/03/10 02:55:47;;;;;;;27.15;17.67;;;0.40;99.90;;;;;;5047564;28;20537;-58
2023/03/10 02:58:14;;;;;;;26.52;18.38;;;0.40;99.90;;;;;;5050063;28;20021;-55
2023/03/10 03:00:41;;;;;;;25.17;17.30;;;0.40;99.90;;;;;;5049512;28;20028;-59
2023/03/10 03:03:08;;;;;;;26.58;17.88;;;0.40;99.90;;;;;;5049829;28;20028;-57
2023/03/10 03:05:33;;;;;;;25.10;17.45;;;0.40;99.90;;;;;;5049675;28;20395;-58
2023/03/10 03:07:59;;;;;;;27.17;17.35;;;0.40;99.90;;;;;;5049861;28;20017;-58
2023/03/10 03:10:25;;;;;;;25.98;17.15;;;0.40;99.90;;;;;;5048561;28;20132;-58
2023/03/10 03:12:50;;;;;;;26.80;16.17;;;0.40;99.90;;;;;;5050548;28;20471;-59
2023/03/10 03:15:17;;;;;;;28.67;18.67;;;0.40;99.90;;;;;;5049632;28;20228;-57
2023/03/10 03:17:43;;;;;;;30.42;18.40;;;0.40;99.90;;;;;;5049381;28;20396;-55
2023/03/10 03:20:13;;;;;;;26.60;18.08;;;0.40;99.90;;;;;;5049313;28;20021;-57
2023/03/10 03:22:43;;;;;;;29.35;19.05;;;0.40;99.90;;;;;;5049408;28;20461;-55
2023/03/10 03:25:12;;;;;;;30.30;18.50;;;0.40;99.90;;;;;;5048143;28;20505;-57
2023/03/10 03:27:38;;;;;;;28.38;17.48;;;0.40;99.90;;;;;;5049488;28;20048;-58
2023/03/10 03:30:11;;;;;;;31.77;17.83;;;0.40;99.90;;;;;;5048910;28;20514;-58
2023/03/10 03:32:37;;;;;;;29.58;18.75;;;0.40;99.90;;;;;;5049424;28;20086;-60
2023/03/10 03:35:07;;;;;;;27.60;17.65;;;0.40;99.90;;;;;;5047095;28;20119;-58
2023/03/10 03:37:32;;;;;;;28.05;17.65;;;0.40;99.90;;;;;;5049190;28;20036;-57
2023/03/10 03:39:58;;;;;;;26.77;17.52;;;0.40;99.90;;;;;;5046398;28;20026;-58
2023/03/10 03:42:23;;;;;;;25.95;16.05;;;0.40;99.90;;;;;;5049219;28;20033;-60
2023/03/10 03:44:49;;;;;;;27.85;17.13;;;0.40;99.90;;;;;;5045300;28;20462;-59
2023/03/10 03:47:14;;;;;;;27.25;18.27;;;0.40;99.90;;;;;;5044512;28;20031;-57
2023/03/10 03:49:40;;;;;;;27.80;17.45;;;0.30;99.90;;;;;;5048585;28;20033;-56
2023/03/10 03:52:06;;;;;;;27.67;16.75;;;0.30;99.90;;;;;;5048900;28;20064;-59
2023/03/10 03:54:32;;;;;;;30.40;17.73;;;0.30;99.90;;;;;;5048898;28;20475;-58
2023/03/10 03:56:58;;;;;;;28.00;17.73;;;0.30;99.90;;;;;;5048655;28;20029;-60
2023/03/10 03:59:24;;;;;;;25.20;17.08;;;0.30;99.90;;;;;;5048654;28;20039;-57
2023/03/10 04:01:50;;;;;;;25.00;16.60;;;0.30;99.90;;;;;;5045111;28;20029;-57
2023/03/10 04:04:15;;;;;;;26.92;17.75;;;0.30;99.90;;;;;;5048989;28;20040;-56
2023/03/10 04:06:41;;;;;;;26.48;17.77;;;0.20;99.90;;;;;;5046722;28;20021;-59
2023/03/10 04:09:09;;;;;;;25.42;16.98;;;0.20;99.90;;;;;;5046998;28;20029;-57
2023/03/10 04:11:35;;;;;;;25.40;16.83;;;0.20;99.90;;;;;;5039586;28;20068;-58
2023/03/10 04:14:00;;;;;;;25.52;17.65;;;0.30;99.90;;;;;;5045264;28;20541;-56
2023/03/10 04:16:26;;;;;;;28.98;17.63;;;0.20;99.90;;;;;;5041737;28;20048;-57
2023/03/10 04:18:51;;;;;;;25.85;17.60;;;0.20;99.90;;;;;;5048501;28;20036;-55
2023/03/10 04:21:17;;;;;;;27.48;17.33;;;0.20;99.90;;;;;;5047947;28;20033;-54
2023/03/10 04:23:42;;;;;;;24.40;16.63;;;0.20;99.90;;;;;;5053121;28;20032;-58
2023/03/10 04:26:09;;;;;;;25.13;17.23;;;0.10;99.90;;;;;;5050806;28;20772;-59
2023/03/10 04:28:35;;;;;;;24.33;16.20;;;0.20;99.90;;;;;;5052614;28;20028;-56
2023/03/10 04:31:01;;;;;;;27.80;17.25;;;0.10;99.90;;;;;;5052421;28;20107;-58
2023/03/10 04:33:27;;;;;;;27.65;16.77;;;0.10;99.90;;;;;;5052383;28;20436;-59
2023/03/10 04:35:53;;;;;;;27.20;17.05;;;0.10;99.90;;;;;;5049128;28;20025;-57
2023/03/10 04:38:19;;;;;;;29.13;18.23;;;0.10;99.90;;;;;;5050954;28;20537;-56
2023/03/10 04:40:44;;;;;;;26.70;17.02;;;0.10;99.90;;;;;;5052458;28;20032;-58
2023/03/10 04:43:10;;;;;;;26.27;16.58;;;0.10;99.90;;;;;;5051295;28;20469;-56
2023/03/10 04:45:36;;;;;;;26.73;17.63;;;0.10;99.90;;;;;;5050630;28;20040;-58
2023/03/10 04:48:01;;;;;;;26.55;18.02;;;0.10;99.90;;;;;;5045810;28;20116;-58
2023/03/10 04:50:27;;;;;;;27.70;18.05;;;0.10;99.90;;;;;;5051662;28;20090;-56
2023/03/10 04:52:53;;;;;;;24.70;16.55;;;0.10;99.90;;;;;;5052255;28;20670;-59
2023/03/10 04:55:18;;;;;;;31.13;18.98;;;0.10;99.90;;;;;;5051743;28;20371;-58
2023/03/10 04:57:44;;;;;;;28.00;17.20;;;0.00;99.90;;;;;;5052272;28;20029;-59
2023/03/10 05:00:11;;;;;;;30.13;18.05;;;0.00;99.90;;;;;;5051949;28;20432;-58
2023/03/10 05:02:38;;;;;;;27.75;17.27;;;0.00;99.90;;;;;;5053043;28;20044;-56
2023/03/10 05:05:04;;;;;;;36.17;20.25;;;0.00;99.90;;;;;;5050669;28;20044;-57
2023/03/10 05:07:30;;;;;;;34.47;20.17;;;0.00;99.90;;;;;;5051929;28;20112;-59
2023/03/10 05:09:56;;;;;;;32.05;18.95;;;0.00;99.90;;;;;;5052095;28;20115;-56
2023/03/10 05:12:21;;;;;;;34.05;19.77;;;0.00;99.90;;;;;;5051983;28;20021;-56
2023/03/10 05:14:47;;;;;;;32.45;19.85;;;0.00;99.90;;;;;;5051864;28;20090;-57
2023/03/10 05:17:12;;;;;;;31.73;19.77;;;-0.10;99.90;;;;;;5051910;28;20459;-59
2023/03/10 05:19:38;;;;;;;36.00;21.52;;;0.00;99.90;;;;;;5051589;28;20044;-56
2023/03/10 05:22:07;;;;;;;32.53;19.58;;;0.00;99.90;;;;;;5051938;28;20124;-58
2023/03/10 05:24:33;;;;;;;28.77;18.77;;;0.00;99.90;;;;;;5051842;28;20029;-58
2023/03/10 05:27:01;;;;;;;33.13;20.77;;;0.00;99.90;;;;;;5051766;28;20025;-58
2023/03/10 05:29:27;;;;;;;34.80;21.83;;;0.00;99.90;;;;;;5050952;28;20476;-58
2023/03/10 05:31:52;;;;;;;35.40;21.35;;;-0.10;99.90;;;;;;5051681;28;20025;-58
2023/03/10 05:34:18;;;;;;;31.05;19.48;;;0.00;99.90;;;;;;5044345;28;20033;-56
2023/03/10 05:36:43;;;;;;;33.35;20.42;;;-0.10;99.90;;;;;;5043892;28;20032;-59
2023/03/10 05:39:10;;;;;;;33.03;20.98;;;-0.10;99.90;;;;;;5051594;28;20068;-59
2023/03/10 05:41:36;;;;;;;32.40;19.20;;;-0.10;99.90;;;;;;5047370;28;20029;-59
2023/03/10 05:44:02;;;;;;;30.58;19.88;;;-0.10;99.90;;;;;;5051172;28;20039;-59
2023/03/10 05:46:28;;;;;;;31.55;18.58;;;-0.10;99.90;;;;;;5040171;28;20045;-60
2023/03/10 05:48:54;;;;;;;32.05;19.38;;;-0.10;99.90;;;;;;5051179;28;20036;-59
2023/03/10 05:51:20;;;;;;;30.23;17.92;;;-0.10;99.90;;;;;;5042393;28;20060;-57
2023/03/10 05:53:46;;;;;;;31.35;17.95;;;-0.10;99.90;;;;;;5042246;28;20448;-58
2023/03/10 05:56:17;;;;;;;29.35;18.35;;;-0.10;99.90;;;;;;5051055;28;20032;-59
2023/03/10 05:58:44;;;;;;;30.02;18.23;;;-0.10;99.90;;;;;;5050641;28;20100;-58
2023/03/10 06:01:10;;;;;;;29.80;18.02;;;-0.10;99.90;;;;;;5044963;28;20036;-59
2023/03/10 06:03:36;;;;;;;29.45;18.10;;;0.00;99.90;;;;;;5050037;28;20118;-57
2023/03/10 06:06:03;;;;;;;24.23;16.05;;;-0.10;99.90;;;;;;5049332;28;20035;-59
2023/03/10 06:08:29;;;;;;;27.73;18.00;;;-0.10;99.90;;;;;;5043229;28;20111;-57
2023/03/10 06:10:56;;;;;;;26.60;16.23;;;-0.10;99.90;;;;;;5042279;28;20210;-58
2023/03/10 06:13:22;;;;;;;26.55;17.20;;;-0.10;99.90;;;;;;5044318;28;20079;-56
2023/03/10 06:15:59;;;;;;;27.88;17.67;;;-0.10;99.90;;;;;;5048827;28;20020;-58
2023/03/10 06:18:26;;;;;;;24.92;15.65;;;-0.10;99.90;;;;;;5051250;28;20033;-58
2023/03/10 06:20:52;;;;;;;21.10;15.68;;;-0.10;99.90;;;;;;5050422;28;20098;-58
2023/03/10 06:23:19;;;;;;;24.17;15.20;;;-0.10;99.90;;;;;;5051075;28;20468;-59
2023/03/10 06:25:44;;;;;;;24.23;15.65;;;-0.10;99.90;;;;;;5050651;28;20044;-55
2023/03/10 06:28:11;;;;;;;23.20;15.02;;;0.00;99.90;;;;;;5050748;28;20144;-60
2023/03/10 06:30:36;;;;;;;24.45;15.65;;;0.00;99.90;;;;;;5049893;28;20098;-60
2023/03/10 06:33:03;;;;;;;23.48;16.23;;;-0.10;99.90;;;;;;5050337;28;20029;-56
2023/03/10 06:35:29;;;;;;;23.73;15.57;;;0.00;99.90;;;;;;5048058;28;20178;-57
2023/03/10 06:37:55;;;;;;;25.17;16.33;;;0.00;99.90;;;;;;5049755;28;20028;-58
2023/03/10 06:40:21;;;;;;;21.30;15.25;;;0.00;99.90;;;;;;5050045;28;20041;-58
2023/03/10 06:42:46;;;;;;;21.42;14.32;;;0.10;99.90;;;;;;5049516;28;20033;-55
2023/03/10 06:45:15;;;;;;;24.73;16.17;;;0.10;99.90;;;;;;5049724;28;20048;-53
2023/03/10 06:47:41;;;;;;;28.80;16.27;;;0.10;99.90;;;;;;5049077;28;20033;-55
2023/03/10 06:50:08;;;;;;;22.80;15.35;;;0.10;99.90;;;;;;5049543;28;20025;-56
2023/03/10 06:52:34;;;;;;;22.45;14.25;;;0.10;99.90;;;;;;5048504;28;20040;-59
2023/03/10 06:55:00;;;;;;;22.02;14.88;;;0.10;99.90;;;;;;5049865;28;20025;-59
2023/03/10 06:57:27;;;;;;;22.27;15.50;;;0.20;99.90;;;;;;5046936;28;20491;-58
2023/03/10 06:59:52;;;;;;;24.70;15.35;;;0.20;99.90;;;;;;5049175;28;20060;-59
2023/03/10 07:02:18;;;;;;;24.60;15.57;;;0.20;99.90;;;;;;5048721;28;20443;-56
2023/03/10 07:04:44;;;;;;;23.63;14.77;;;0.20;99.90;;;;;;5048197;28;20029;-59
2023/03/10 07:07:10;;;;;;;22.25;14.27;;;0.20;99.90;;;;;;5049193;28;20060;-59
2023/03/10 07:09:36;;;;;;;21.77;15.32;;;0.30;99.90;;;;;;5049697;28;20043;-58
2023/03/10 07:12:01;;;;;;;21.35;14.63;;;0.30;99.90;;;;;;5049756;28;20475;-59
2023/03/10 07:14:27;;;;;;;22.77;14.77;;;0.30;99.90;;;;;;5046597;28;20463;-56
2023/03/10 07:16:52;;;;;;;21.88;15.32;;;0.40;99.90;;;;;;5049591;28;20119;-55
2023/03/10 07:19:18;;;;;;;20.48;14.55;;;0.40;99.90;;;;;;5049337;28;20548;-59
2023/03/10 07:21:43;;;;;;;24.02;14.70;;;0.40;99.90;;;;;;5049318;28;20036;-58
2023/03/10 07:24:09;;;;;;;22.30;14.93;;;0.30;99.90;;;;;;5049759;28;20467;-57
2023/03/10 07:26:34;;;;;;;20.75;14.25;;;0.40;99.90;;;;;;5049837;28;20483;-59
2023/03/10 07:29:01;;;;;;;23.35;14.52;;;0.40;99.90;;;;;;5049301;28;20039;-57
2023/03/10 07:31:27;;;;;;;19.73;13.93;;;0.40;99.90;;;;;;5049407;28;20029;-58
2023/03/10 07:33:52;;;;;;;20.48;14.30;;;0.40;99.90;;;;;;5049520;28;20525;-57
2023/03/10 07:36:19;;;;;;;22.35;14.65;;;0.40;99.90;;;;;;5049316;28;20033;-56
2023/03/10 07:38:45;;;;;;;19.50;13.25;;;0.50;99.90;;;;;;5048680;28;20040;-59
2023/03/10 07:41:13;;;;;;;21.95;14.10;;;0.40;99.90;;;;;;5049563;28;20024;-59
2023/03/10 07:43:39;;;;;;;21.80;13.95;;;0.50;99.90;;;;;;5049045;28;20064;-59
2023/03/10 07:46:06;;;;;;;21.90;14.05;;;0.50;99.90;;;;;;5048015;28;20585;-58
2023/03/10 07:48:33;;;;;;;21.20;14.35;;;0.50;99.90;;;;;;5046582;28;20036;-60
2023/03/10 07:50:59;;;;;;;22.30;14.48;;;0.50;99.90;;;;;;5046710;28;20384;-58
2023/03/10 07:53:25;;;;;;;21.48;13.93;;;0.50;99.90;;;;;;5049074;28;20029;-56
2023/03/10 07:55:51;;;;;;;21.48;15.10;;;0.60;99.90;;;;;;5047692;28;20029;-54
2023/03/10 07:58:17;;;;;;;21.20;14.23;;;0.50;99.90;;;;;;5047863;28;20029;-56
2023/03/10 08:00:42;;;;;;;23.20;14.45;;;0.60;99.90;;;;;;5047160;28;20029;-58
2023/03/10 08:03:08;;;;;;;21.70;15.00;;;0.60;99.90;;;;;;5049296;28;20035;-56
2023/03/10 08:05:41;;;;;;;22.38;15.43;;;0.60;99.90;;;;;;5048387;28;20086;-60
2023/03/10 08:08:07;;;;;;;24.08;15.90;;;0.60;99.90;;;;;;5049633;28;20036;-60
2023/03/10 08:10:33;;;;;;;23.08;14.80;;;0.60;99.90;;;;;;5047978;28;20037;-51
2023/03/10 08:12:59;;;;;;;21.33;14.57;;;0.60;99.90;;;;;;5049242;28;20031;-52
2023/03/10 08:15:25;;;;;;;23.08;15.23;;;0.60;99.90;;;;;;5048680;28;20025;-56
2023/03/10 08:17:51;;;;;;;24.58;15.18;;;0.70;99.90;;;;;;5048952;28;20056;-55
2023/03/10 08:20:17;;;;;;;21.35;14.98;;;0.70;99.90;;;;;;5048454;28;20032;-58
2023/03/10 08:22:43;;;;;;;21.38;15.10;;;0.60;99.90;;;;;;5048515;28;20032;-58
2023/03/10 08:25:09;;;;;;;23.55;15.35;;;0.60;99.90;;;;;;5048612;28;20064;-56
2023/03/10 08:27:34;;;;;;;25.52;16.00;;;0.70;99.90;;;;;;5048918;28;20060;-58
2023/03/10 08:30:00;;;;;;;23.40;15.45;;;0.60;99.90;;;;;;5048607;28;20029;-59
2023/03/10 08:32:26;;;;;;;22.13;13.95;;;0.70;99.90;;;;;;5049125;28;20027;-56
2023/03/10 08:34:51;;;;;;;21.17;13.98;;;0.70;99.90;;;;;;5040717;28;20104;-58
2023/03/10 08:37:17;;;;;;;22.02;14.63;;;0.70;99.90;;;;;;5046901;28;20028;-55
2023/03/10 08:39:43;;;;;;;22.38;14.85;;;0.70;99.90;;;;;;5048602;28;20029;-57
2023/03/10 08:42:12;;;;;;;23.58;15.20;;;0.70;99.90;;;;;;5042964;28;20044;-59
2023/03/10 08:44:39;;;;;;;23.33;14.00;;;0.70;99.90;;;;;;5042781;28;20040;-54
2023/03/10 08:47:04;;;;;;;21.83;14.45;;;0.70;99.90;;;;;;5045942;28;20037;-56
2023/03/10 08:49:30;;;;;;;22.17;14.50;;;0.70;99.90;;;;;;5048248;28;20237;-56
2023/03/10 08:51:56;;;;;;;20.45;14.68;;;0.70;99.90;;;;;;5046538;28;20030;-58
2023/03/10 08:54:21;;;;;;;23.70;14.15;;;0.70;99.90;;;;;;5048512;28;20056;-52
2023/03/10 08:56:47;;;;;;;23.02;13.73;;;0.70;99.90;;;;;;5030392;28;20166;-61
2023/03/10 08:59:13;;;;;;;21.48;13.88;;;0.70;99.90;;;;;;5048346;28;20029;-58
2023/03/10 09:01:39;;;;;;;22.50;15.93;;;0.70;99.90;;;;;;5046287;28;20051;-58
2023/03/10 09:04:06;;;;;;;22.98;14.30;;;0.80;99.90;;;;;;5047149;28;20029;-54
2023/03/10 09:06:32;;;;;;;20.70;14.02;;;0.80;99.90;;;;;;5047431;28;20025;-52
2023/03/10 09:08:58;;;;;;;25.00;15.63;;;0.80;99.90;;;;;;5046509;28;20044;-57
2023/03/10 09:11:32;;;;;;;24.73;15.43;;;0.80;99.90;;;;;;5050563;28;20021;-59
2023/03/10 09:14:00;;;;;;;20.17;14.50;;;0.80;99.90;;;;;;5048067;28;20457;-56
2023/03/10 09:16:27;;;;;;;23.85;15.85;;;0.80;99.90;;;;;;5051985;28;20044;-57
2023/03/10 09:18:53;;;;;;;24.85;15.75;;;0.90;99.90;;;;;;5050188;28;20448;-55
2023/03/10 09:21:19;;;;;;;24.83;15.90;;;0.90;99.90;;;;;;5051622;28;20032;-52
2023/03/10 09:23:48;;;;;;;24.40;15.40;;;0.90;99.90;;;;;;5052026;28;20503;-56
2023/03/10 09:26:14;;;;;;;23.88;14.60;;;0.90;99.90;;;;;;5049630;28;20111;-54
2023/03/10 09:28:41;;;;;;;25.17;16.00;;;0.90;99.90;;;;;;5052554;28;20461;-56
2023/03/10 09:31:08;;;;;;;21.85;15.65;;;0.80;99.90;;;;;;5051102;28;20025;-56
2023/03/10 09:33:34;;;;;;;25.30;15.48;;;0.90;99.90;;;;;;5050182;28;20051;-59
2023/03/10 09:36:02;;;;;;;25.75;15.75;;;0.90;99.90;;;;;;5051591;28;20074;-55
2023/03/10 09:38:28;;;;;;;23.73;15.43;;;0.90;99.90;;;;;;5051820;28;20016;-56
2023/03/10 09:41:20;;;;;;;21.05;14.32;;;0.90;99.90;;;;;;5051179;28;20036;-56
2023/03/10 09:44:01;;;;;;;22.65;15.05;;;1.00;99.90;;;;;;5046728;28;20612;-54
2023/03/10 09:46:37;;;;;;;24.80;16.17;;;1.00;99.90;;;;;;5051097;28;20473;-54
2023/03/10 09:49:11;;;;;;;;;;;1.00;99.90;;;;;;5044965;28;20111;-57
2023/03/10 09:51:42;;;;;;;23.38;14.00;;;1.00;99.90;;;;;;5051432;28;20010;-57
2023/03/10 09:54:25;;;;;;;22.00;15.15;;;1.00;99.90;;;;;;5045552;28;20075;-56
2023/03/10 09:56:53;;;;;;;23.98;15.65;;;1.00;99.90;;;;;;5046155;28;20438;-54
2023/03/10 09:59:34;;;;;;;23.13;15.35;;;1.00;99.90;;;;;;5050727;28;20025;-54
2023/03/10 10:02:02;;;;;;;26.60;14.82;;;1.00;99.90;;;;;;5051080;28;20062;-56
2023/03/10 10:04:36;;;;;;;22.45;14.57;;;0.90;99.90;;;;;;5051160;28;20553;-54
2023/03/10 10:07:12;;;;;;;21.63;13.95;;;1.00;99.90;;;;;;5050881;28;20384;-55
2023/03/10 10:09:44;;;;;;;25.58;15.98;;;1.00;99.90;;;;;;5050824;28;20507;-50
2023/03/10 10:12:15;;;;;;;24.33;15.30;;;1.00;99.90;;;;;;5050955;28;20033;-58
2023/03/10 10:14:42;;;;;;;21.63;14.77;;;1.00;99.90;;;;;;5051106;28;20099;-51
2023/03/10 10:17:10;;;;;;;23.10;15.30;;;1.00;99.90;;;;;;5050985;28;20060;-59
2023/03/10 10:19:38;;;;;;;26.15;16.20;;;1.00;99.90;;;;;;5048701;28;20032;-56
2023/03/10 10:22:30;;;;;;;22.83;15.60;;;1.00;99.90;;;;;;5051063;28;20033;-56
2023/03/10 10:25:08;;;;;;;26.13;16.17;;;1.00;99.90;;;;;;5050644;28;20556;-58
2023/03/10 10:27:35;;;;;;;27.17;16.75;;;1.00;99.90;;;;;;5050094;28;20025;-56
2023/03/10 10:30:33;;;;;;;24.52;17.00;;;1.00;99.90;;;;;;5050194;28;20051;-51
2023/03/10 10:33:04;;;;;;;26.00;16.85;;;1.00;99.90;;;;;;5049158;28;20032;-55
2023/03/10 10:35:33;;;;;;;24.92;16.17;;;1.00;99.90;;;;;;5050308;28;20029;-60
2023/03/10 10:38:02;;;;;;;24.80;16.67;;;1.00;99.90;;;;;;5049213;28;20108;-56
2023/03/10 10:40:32;;;;;;;23.70;16.45;;;1.10;99.90;;;;;;5046622;28;20029;-57
2023/03/10 10:42:59;;;;;;;27.48;18.23;;;1.10;99.90;;;;;;5050236;28;20025;-55
2023/03/10 10:45:38;;;;;;;27.35;17.10;;;1.10;99.90;;;;;;5048197;28;20036;-55
2023/03/10 10:48:04;;;;;;;27.40;18.35;;;1.10;99.90;;;;;;5043804;28;20067;-54
2023/03/10 10:50:34;;;;;;;26.40;16.13;;;1.10;99.90;;;;;;5049190;28;20431;-54
2023/03/10 10:53:12;;;;;;;27.38;16.55;;;1.10;99.90;;;;;;5048405;28;20025;-53
2023/03/10 10:55:39;;;;;;;28.55;17.85;;;1.10;99.90;;;;;;5047703;28;20398;-51
2023/03/10 10:58:21;;;;;;;23.67;16.23;;;1.10;99.90;;;;;;5043640;28;20272;-52
2023/03/10 11:00:54;;;;;;;21.70;15.70;;;1.20;99.90;;;;;;5049679;28;20384;-54
2023/03/10 11:03:41;;;;;;;25.77;17.10;;;1.20;99.90;;;;;;5050077;28;20434;-54
2023/03/10 11:06:26;;;;;;;25.58;17.38;;;1.20;99.90;;;;;;5042463;28;20033;-55
2023/03/10 11:09:12;;;;;;;25.98;16.23;;;1.20;99.90;;;;;;5045228;28;20021;-54
2023/03/10 11:11:55;;;;;;;24.25;15.23;;;1.20;99.90;;;;;;5048350;28;20368;-56
2023/03/10 11:14:38;;;;;;;23.13;16.13;;;1.20;99.90;;;;;;5049333;28;20257;-53
2023/03/10 11:17:17;;;;;;;25.85;16.13;;;1.20;99.90;;;;;;5042103;28;20025;-53
2023/03/10 11:19:55;;;;;;;24.67;14.70;;;1.20;99.90;;;;;;5043659;28;20078;-53
2023/03/10 11:22:39;;;;;;;21.20;14.43;;;1.30;99.90;;;;;;5049616;28;20391;-56
2023/03/10 11:25:12;;;;;;;22.58;15.07;;;1.30;99.90;;;;;;5049941;28;20115;-51
2023/03/10 11:27:49;;;;;;;21.92;14.00;;;1.30;99.90;;;;;;5047705;28;20041;-57
2023/03/10 11:30:30;;;;;;;19.92;14.32;;;1.30;99.90;;;;;;5044046;28;20021;-51
2023/03/10 11:33:30;;;;;;;20.45;14.77;;;1.40;99.90;;;;;;5045434;28;20032;-56
2023/03/10 11:36:04;;;;;;;22.52;14.98;;;1.40;99.90;;;;;;5044561;28;20025;-53
2023/03/10 11:38:41;;;;;;;22.42;14.38;;;1.30;99.90;;;;;;5043724;28;20052;-56
2023/03/10 11:41:17;;;;;;;20.83;14.27;;;1.30;99.90;;;;;;5043461;28;20028;-55
2023/03/10 11:43:54;;;;;;;21.20;14.10;;;1.30;99.90;;;;;;5047874;28;20503;-51
2023/03/10 11:46:47;;;;;;;20.67;13.68;;;1.20;99.90;;;;;;5049085;28;20017;-53
2023/03/10 11:49:16;;;;;;;23.23;14.20;;;1.30;99.90;;;;;;5017647;28;20503;-57
2023/03/10 11:51:50;;;;;;;21.77;14.07;;;1.30;99.90;;;;;;5048051;28;20131;-55
2023/03/10 11:54:33;;;;;;;19.67;14.10;;;1.30;99.90;;;;;;5042269;28;20017;-54
2023/03/10 11:57:02;;;;;;;23.27;14.70;;;1.30;99.90;;;;;;5042725;28;20381;-52
2023/03/10 11:59:31;;;;;;;22.08;14.35;;;1.30;99.90;;;;;;5048765;28;20025;-52
2023/03/10 12:02:18;;;;;;;22.80;14.35;;;1.30;99.90;;;;;;5048834;28;20056;-54
2023/03/10 12:04:58;;;;;;;23.70;14.02;;;1.30;99.90;;;;;;5048994;28;20487;-53
2023/03/10 12:07:36;;;;;;;21.08;13.82;;;1.30;99.90;;;;;;5044740;28;20032;-56
2023/03/10 12:10:09;;;;;;;19.70;14.13;;;1.40;99.90;;;;;;5042300;28;20024;-54
2023/03/10 12:12:37;;;;;;;21.75;14.35;;;1.30;99.90;;;;;;5043856;28;20471;-60
2023/03/10 12:15:17;;;;;;;20.92;14.27;;;1.40;99.90;;;;;;5048840;28;20021;-57
2023/03/10 12:17:44;;;;;;;20.13;13.38;;;1.40;99.90;;;;;;5042835;28;20032;-58
2023/03/10 12:20:12;;;;;;;19.48;13.35;;;1.40;99.90;;;;;;5048744;28;20025;-52
2023/03/10 12:22:50;;;;;;;20.90;13.48;;;1.40;99.90;;;;;;5041714;28;20048;-52
2023/03/10 12:25:45;;;;;;;20.20;13.73;;;1.40;99.90;;;;;;5049192;28;20424;-54
2023/03/10 12:28:15;;;;;;;18.73;13.38;;;1.50;99.90;;;;;;5030982;28;20034;-51
2023/03/10 12:30:55;;;;;;;19.50;14.00;;;1.50;99.90;;;;;;5048600;28;20517;-54
2023/03/10 12:33:29;;;;;;;20.08;13.32;;;1.50;99.90;;;;;;5045437;28;20426;-51
2023/03/10 12:36:20;;;;;;;18.38;12.95;;;1.50;99.90;;;;;;5045155;28;20032;-56
2023/03/10 12:38:56;;;;;;;20.88;12.90;;;1.50;99.90;;;;;;5047753;28;20021;-52
2023/03/10 12:41:24;;;;;;;20.88;13.55;;;1.60;99.90;;;;;;5047318;28;20025;-57
2023/03/10 12:43:57;;;;;;;22.40;14.73;;;1.60;99.90;;;;;;5051321;28;20053;-59
2023/03/10 12:46:25;;;;;;;21.45;13.75;;;1.60;99.90;;;;;;5052273;28;20029;-57